x

Orange Beach - 44 Nm Se Of Mobile, Al (42012) Wave Buoy

5:50pm - Sat 4th Jul 2015 All times are CDT. -5 hours from GMT.

  • Sig Wave height 1.6ft
  • Swell Direction
  • Peak Period 4s
  • Average Period 4s
  • Wind
    9mph, 11mph gusts
  • Sea Temp 84°f
  • Air Temp 85°f
  • Sea Pressure 1017mb
  • Orange Beach - 44 Nm Se Of Mobile, Al
  • Orange Beach - 44 Nm Se Of Mobile, Al

More Historic Weather Station data

Upgrade to MSW Pro to gain access to the past 30 days of data for over 8000 Wavebouys and Weather Stations around the globe.

Join Pro

Comparision Forecast

View Surf forecast
   
Sat 07/04 5:50pm 1.6ft 4s 4s 9 11 mph 1017mb 84f 85f
4:50pm 1.6ft 4s 4s 9 11 mph 1017.1mb 84f 85f
3:50pm 1.6ft 4s  -  11 13 mph 1016.3mb 84f 84f
2:50pm 1.6ft 4s 4s 7 13 mph 1016.7mb 85f 84f
1:50pm 1.6ft 4s 4s 7 9 mph 1017mb 85f 84f
12:50pm 2ft 4s 4s 9 11 mph 1017.8mb 84f 84f
11:50am 2ft 4s 4s 13
mph
1018.1mb 83f 83f
10:50am 2.5ft 4s 4s 13 16 mph 1018.6mb 83f 83f
9:50am 2.5ft 4s 4s 13
mph
1018.4mb 83f 84f
8:50am 2.5ft 4s 4s 13 16 mph 1018.1mb 83f 84f
7:50am 2.5ft 4s 4s 16 18 mph 1017.7mb 83f 84f
6:50am 2.5ft 4s 4s 16 18 mph 1017.2mb 83f 83f
5:50am 2.5ft 4s 4s 13 18 mph 1016.5mb 83f 84f
4:50am 2.5ft 3s 3s 18 20 mph 1015.9mb 83f 84f
3:50am 2.5ft 3s 3s 18 20 mph 1015.8mb 83f 84f
2:50am 2ft 3s 3s 16 18 mph 1016.1mb 83f 84f
1:50am 2ft 7s 3s 13 18 mph 1016.4mb 83f 84f
12:50am 1.6ft 3s 4s 11 13 mph 1016.7mb 83f 84f
Fri 07/03 11:50pm 1.6ft 7s 4s 11 13 mph 1017.1mb 83f 84f
10:50pm 2ft 4s 4s 11 13 mph 1017mb 83f 84f
9:50pm 1.6ft 5s 4s 11 13 mph 1016mb 83f 84f
7:50pm 1.6ft 5s 4s 11 13 mph 1015.8mb 84f 84f
6:50pm 1.6ft 6s 4s 11 13 mph 1015.7mb 84f 84f
5:50pm 1.6ft 6s 4s 9 11 mph 1015.8mb 84f 84f
4:50pm 1.3ft 6s 4s 9
mph
1016.4mb 84f 85f
3:50pm 1.6ft 4s 4s 11 13 mph 1016.8mb 84f 84f
2:50pm 1.6ft 4s 4s 7 9 mph 1017.1mb 84f 84f
1:50pm 1.6ft 5s 4s 7 9 mph 1017.4mb 83f 84f
12:50pm 1.6ft 5s 4s 7 9 mph 1017.6mb 83f 84f
11:50am 1.6ft 4s 4s 7 9 mph 1017.9mb 83f 84f
10:50am 1.6ft 4s 4s 7 9 mph 1017.9mb 82f 83f
9:50am 1.6ft 4s 4s 9
mph
1017.3mb 82f 83f
8:50am 1.6ft 4s 4s 9 11 mph 1017.5mb 82f 83f
7:50am 1.6ft 3s 3s 9 11 mph 1017.5mb 82f 83f
6:50am 2ft 3s 3s 11 13 mph 1017mb 82f 83f
5:50am 2ft 3s 3s 13 16 mph 1016.5mb 82f 83f
4:50am 1.6ft 3s 3s 11 13 mph 1016.4mb 82f 83f
3:50am 1.6ft 3s 3s 13 16 mph 1016.5mb 82f 83f
2:50am 1.3ft 3s 3s 11 16 mph 1016.7mb 82f 83f
1:50am 1.3ft 3s 3s 11 13 mph 1017.1mb 82f 83f
12:50am 1.3ft 3s 3s 11 13 mph 1017.1mb 82f 83f
Thu 07/02 11:50pm 1.3ft 4s 3s 11 13 mph 1016.8mb 82f 83f
10:50pm 1.3ft 4s 4s 9 11 mph 1017.1mb 82f 83f
9:50pm 1.3ft 4s 4s 7 9 mph 1016.9mb 82f 83f
8:50pm 1.3ft 4s 4s 9 11 mph 1016.7mb 82f 83f
7:50pm 1.3ft 4s 4s 9 11 mph 1016.6mb 82f 83f
6:50pm 1.3ft 4s 4s 11 13 mph 1016.9mb 82f 83f
5:50pm 1.3ft 4s 4s 11 13 mph 1017.1mb 82f 83f
4:50pm 1.6ft 5s 4s 11 13 mph 1017.1mb 82f 83f
3:50pm 1.6ft 4s 4s 11 13 mph 1017.2mb 82f 83f
2:50pm 2ft 4s 4s 9
mph
1017.3mb 82f 83f
1:50pm 2ft 5s 4s 7 9 mph 1017.8mb 83f 83f
12:50pm 2.5ft 5s 4s 9
mph
1018.4mb 82f 83f
11:50am 2.5ft 5s 4s 11
mph
1018.8mb 82f 83f
10:50am 2.5ft 5s 4s 11 13 mph 1019.3mb 82f 82f
9:50am 2.5ft 5s 4s 13 16 mph 1019.3mb 83f 81f
8:50am 2.5ft 4s 3s 20 25 mph 1019mb 83f 82f
7:50am 1.6ft 3s 3s 16 18 mph 1018.5mb 82f 82f
6:50am 1.6ft 3s 3s 22 27 mph 1016.9mb 82f 79f
5:50am 1ft 3s 3s 9 11 mph 1017.3mb 82f 82f
4:50am 1ft 3s 3s 9 11 mph 1017.5mb 83f 82f
3:50am 1.3ft 4s 3s 4 7 mph 1017.4mb 83f 82f
2:50am 1.6ft 3s 3s 9
mph
1017.5mb 83f 82f
1:50am 1.6ft 4s 4s 7 9 mph 1017.1mb 83f 82f
12:50am 1.6ft 4s 4s 2 4 mph 1017.6mb 83f 80f
Wed 07/01 11:50pm 1.6ft 4s 3s 4 7 mph 1017.9mb 83f 81f
10:50pm 1.6ft 4s 3s 7
mph
1018.6mb 83f 81f
9:50pm 2ft 4s 4s 9 11 mph 1019mb 83f 81f
8:50pm 2ft 3s 3s 11 13 mph 1018.2mb 83f 82f
7:50pm 1.6ft 3s 3s 16 18 mph 1018.2mb 84f 82f
6:50pm 1.6ft 3s 3s 13
mph
1017.8mb 84f 82f
5:50pm 1.3ft 3s 3s 16 20 mph 1017.5mb 84f 84f
4:50pm 1.3ft 3s 3s 13 16 mph 1017.3mb 84f 84f
3:50pm 1.3ft 4s 3s 11 13 mph 1017.6mb 84f 84f
2:50pm 1ft 4s 4s 13
mph
1018.4mb 84f 84f
1:50pm 1ft 5s 4s 9 11 mph 1019.2mb 84f 84f
12:50pm 1.3ft 5s 4s 7
mph
1019.4mb 84f 83f
11:50am 1.3ft 5s 4s 4 7 mph 1020.1mb 83f 82f
10:50am 1.3ft 5s 4s 4
mph
1020.1mb 83f 82f
9:50am 1.6ft 5s 4s 2 4 mph 1019.9mb 83f 82f
8:50am 2ft 5s 4s 4 7 mph 1019.3mb 83f 81f
7:50am 2ft 4s 4s 4 7 mph 1018.7mb 83f 81f
6:50am 2ft 4s 4s 7 9 mph 1018.1mb 83f 81f
5:50am 2.5ft 4s 4s 2
mph
1016.9mb 83f 81f
4:50am 2.5ft 4s 4s 7 9 mph 1017mb 83f 82f
3:50am 2.5ft 4s 3s 13 16 mph 1017.6mb 83f 82f
2:50am 2ft 3s 3s 13 16 mph 1017.8mb 83f 82f
1:50am 1.6ft 3s 3s 18 22 mph 1017.9mb 83f 83f
12:50am 1.3ft 3s 3s 20 25 mph 1018.2mb 84f 83f